Time;durP1;ratioP1;P1;durP2;ratioP2;P2;SDS_P1;SDS_P2;PMS_P1;PMS_P2;Temp;Humidity;BMP_temperature;BMP_pressure;BME280_temperature;BME280_humidity;BME280_pressure;Samples;Min_cycle;Max_cycle;Signal;HPM_P1;HPM_P2
2022/12/14 00:02:08;;;;;;;28.80;19.33;;;;;;;;;;4962829;28;20184;-81
2022/12/14 00:04:34;;;;;;;30.00;19.20;;;;;;;;;;4995983;28;20180;-81
2022/12/14 00:07:00;;;;;;;27.60;18.97;;;;;;;;;;4962663;28;20190;-81
2022/12/14 00:09:26;;;;;;;27.83;18.97;;;;;;;;;;4962604;28;20189;-81
2022/12/14 00:11:52;;;;;;;25.53;17.77;;;;;;;;;;4978929;28;20212;-82
2022/12/14 00:14:18;;;;;;;28.23;18.40;;;;;;;;;;4962353;28;20178;-81
2022/12/14 00:16:44;;;;;;;29.47;20.03;;;;;;;;;;4978193;28;20225;-79
2022/12/14 00:19:10;;;;;;;24.70;18.73;;;;;;;;;;4992949;28;20242;-79
2022/12/14 00:21:36;;;;;;;27.20;17.67;;;;;;;;;;4997499;28;20273;-78
2022/12/14 00:24:03;;;;;;;25.93;18.33;;;;;;;;;;4997714;28;20230;-79
2022/12/14 00:26:30;;;;;;;26.53;18.10;;;;;;;;;;4981608;28;20185;-79
2022/12/14 00:28:56;;;;;;;24.93;17.97;;;;;;;;;;4997593;28;20188;-79
2022/12/14 00:31:23;;;;;;;28.47;18.37;;;;;;;;;;4997826;28;20220;-80
2022/12/14 00:33:49;;;;;;;28.03;18.47;;;;;;;;;;5015156;28;20218;-79
2022/12/14 00:36:15;;;;;;;27.00;18.73;;;;;;;;;;4997771;28;20265;-79
2022/12/14 00:38:42;;;;;;;27.88;23.13;;;;;;;;;;4996774;28;20442;-79
2022/12/14 00:41:08;;;;;;;28.47;20.83;;;;;;;;;;5014846;28;20173;-79
2022/12/14 00:43:34;;;;;;;29.50;19.30;;;;;;;;;;4997525;28;20189;-79
2022/12/14 00:46:00;;;;;;;26.27;18.40;;;;;;;;;;4997403;28;20188;-79
2022/12/14 00:48:26;;;;;;;29.87;19.57;;;;;;;;;;4981136;28;20185;-79
2022/12/14 00:50:53;;;;;;;26.50;17.87;;;;;;;;;;4997076;28;20205;-81
2022/12/14 00:53:20;;;;;;;26.73;18.47;;;;;;;;;;5014633;28;20177;-79
2022/12/14 00:55:47;;;;;;;27.40;18.63;;;;;;;;;;4997325;28;20213;-79
2022/12/14 00:58:14;;;;;;;27.43;18.27;;;;;;;;;;4997166;28;20181;-80
2022/12/14 01:00:40;;;;;;;27.50;18.63;;;;;;;;;;4981156;28;20276;-79
2022/12/14 01:03:06;;;;;;;26.87;18.60;;;;;;;;;;4996979;28;20200;-79
2022/12/14 01:05:36;;;;;;;27.63;18.50;;;;;;;;;;4996905;28;20206;-79
2022/12/14 01:08:02;;;;;;;28.13;19.10;;;;;;;;;;4997115;28;20185;-80
2022/12/14 01:10:28;;;;;;;26.27;17.57;;;;;;;;;;4996995;28;20351;-80
2022/12/14 01:12:54;;;;;;;27.33;17.93;;;;;;;;;;4997079;28;20182;-80
2022/12/14 01:15:20;;;;;;;28.30;21.65;;;;;;;;;;5013489;28;20403;-79
2022/12/14 01:17:46;;;;;;;27.10;18.43;;;;;;;;;;4997178;28;20243;-80
2022/12/14 01:20:13;;;;;;;25.97;17.63;;;;;;;;;;4994294;28;20253;-80
2022/12/14 01:22:39;;;;;;;25.02;20.67;;;;;;;;;;4960566;28;20494;-80
2022/12/14 01:25:05;;;;;;;26.20;17.83;;;;;;;;;;4994702;28;20170;-78
2022/12/14 01:27:31;;;;;;;24.17;20.67;;;;;;;;;;4975662;28;20522;-79
2022/12/14 01:29:57;;;;;;;23.03;17.40;;;;;;;;;;4976690;28;20210;-79
2022/12/14 01:32:23;;;;;;;24.43;17.50;;;;;;;;;;4990170;28;20182;-79
2022/12/14 01:34:50;;;;;;;24.47;16.73;;;;;;;;;;5017242;28;20217;-78
2022/12/14 01:37:16;;;;;;;24.20;16.17;;;;;;;;;;4994821;28;20231;-78
2022/12/14 01:39:42;;;;;;;29.40;16.60;;;;;;;;;;5017116;28;20269;-79
2022/12/14 01:42:11;;;;;;;25.23;16.67;;;;;;;;;;5008524;28;20182;-79
2022/12/14 01:44:40;;;;;;;22.13;16.00;;;;;;;;;;5000201;28;20216;-79
2022/12/14 01:47:06;;;;;;;25.13;20.35;;;;;;;;;;5028246;23;20470;-81
2022/12/14 01:49:36;;;;;;;24.40;19.17;;;;;;;;;;5015492;28;20438;-80
2022/12/14 01:52:07;;;;;;;24.17;20.05;;;;;;;;;;5015352;28;20481;-81
2022/12/14 01:54:34;;;;;;;25.23;19.48;;;;;;;;;;5015401;28;20423;-81
2022/12/14 01:57:00;;;;;;;22.87;15.93;;;;;;;;;;5015047;28;20185;-86
2022/12/14 01:59:31;;;;;;;21.17;15.40;;;;;;;;;;5002146;28;20189;-87
2022/12/14 02:02:00;;;;;;;23.50;15.90;;;;;;;;;;5015539;28;20272;-86
2022/12/14 02:04:26;;;;;;;23.48;19.42;;;;;;;;;;5006879;28;20435;-87
2022/12/14 02:06:52;;;;;;;21.23;15.60;;;;;;;;;;5006321;28;20189;-87
2022/12/14 02:09:26;;;;;;;24.17;15.30;;;;;;;;;;5015099;28;20201;-87
2022/12/14 02:11:57;;;;;;;23.90;18.80;;;;;;;;;;5011421;28;20448;-87
2022/12/14 02:14:24;;;;;;;19.47;15.40;;;;;;;;;;5016199;28;20232;-81
2022/12/14 02:16:51;;;;;;;21.97;14.93;;;;;;;;;;5015639;28;20270;-81
2022/12/14 02:19:17;;;;;;;21.33;15.30;;;;;;;;;;5017158;28;20269;-81
2022/12/14 02:21:56;;;;;;;20.87;14.97;;;;;;;;;;4998735;28;20224;-80
2022/12/14 02:24:38;;;;;;;23.70;15.53;;;;;;;;;;5017046;28;20184;-80
2022/12/14 02:27:21;;;;;;;23.93;14.60;;;;;;;;;;4999092;28;20189;-80
2022/12/14 02:29:50;;;;;;;20.80;14.93;;;;;;;;;;5015779;28;20245;-81
2022/12/14 02:32:31;;;;;;;21.57;15.03;;;;;;;;;;4999031;28;20265;-87
2022/12/14 02:35:09;;;;;;;22.47;15.27;;;;;;;;;;5015792;28;20181;-87
2022/12/14 02:37:44;;;;;;;24.23;18.27;;;;;;;;;;5014391;28;20430;-86
2022/12/14 02:40:19;;;;;;;23.17;16.07;;;;;;;;;;5007562;28;20223;-87
2022/12/14 02:43:01;;;;;;;20.63;14.27;;;;;;;;;;5015469;28;20235;-86
2022/12/14 02:45:45;;;;;;;22.67;17.90;;;;;;;;;;5012163;28;20458;-87
2022/12/14 02:48:24;;;;;;;21.65;18.10;;;;;;;;;;5000248;28;20425;-87
2022/12/14 02:51:09;;;;;;;22.08;17.77;;;;;;;;;;4999830;28;20435;-87
2022/12/14 02:53:38;;;;;;;21.02;17.33;;;;;;;;;;5014040;28;20423;-87
2022/12/14 02:56:08;;;;;;;22.80;18.13;;;;;;;;;;5014534;28;20422;-87
2022/12/14 02:58:39;;;;;;;22.15;18.52;;;;;;;;;;5009200;28;20420;-87
2022/12/14 03:01:07;;;;;;;21.97;18.50;;;;;;;;;;4990605;28;20484;-86
2022/12/14 03:03:33;;;;;;;23.08;18.80;;;;;;;;;;5013906;28;20442;-79
2022/12/14 03:06:01;;;;;;;23.00;18.90;;;;;;;;;;4997991;28;20415;-79
2022/12/14 03:08:29;;;;;;;24.90;19.25;;;;;;;;;;5007903;28;20462;-80
2022/12/14 03:11:00;;;;;;;23.02;18.38;;;;;;;;;;5013020;28;20439;-79
2022/12/14 03:13:33;;;;;;;22.47;18.00;;;;;;;;;;5003842;28;20414;-79
2022/12/14 03:16:01;;;;;;;22.42;18.52;;;;;;;;;;5014454;28;20426;-78
2022/12/14 03:18:30;;;;;;;21.63;18.15;;;;;;;;;;5014521;28;20569;-79
2022/12/14 03:20:57;;;;;;;22.70;18.33;;;;;;;;;;5013342;28;20427;-81
2022/12/14 03:23:26;;;;;;;20.73;17.42;;;;;;;;;;5000368;28;20508;-82
2022/12/14 03:25:54;;;;;;;21.37;17.63;;;;;;;;;;4997967;28;20721;-82
2022/12/14 03:28:28;;;;;;;21.70;17.95;;;;;;;;;;5007240;28;20468;-82
2022/12/14 03:31:03;;;;;;;21.38;17.58;;;;;;;;;;4995952;28;20531;-82
2022/12/14 03:33:30;;;;;;;21.07;17.53;;;;;;;;;;5006477;28;20522;-82
2022/12/14 03:35:59;;;;;;;20.50;16.92;;;;;;;;;;4997013;28;20478;-82
2022/12/14 03:38:34;;;;;;;23.75;17.35;;;;;;;;;;4994121;28;20427;-80
2022/12/14 03:41:00;;;;;;;20.85;15.60;;;;;;;;;;4999482;28;20439;-80
2022/12/14 03:43:31;;;;;;;21.13;14.43;;;;;;;;;;4982644;28;20189;-80
2022/12/14 03:46:03;;;;;;;22.08;16.88;;;;;;;;;;5013499;28;20515;-80
2022/12/14 03:48:50;;;;;;;21.73;17.52;;;;;;;;;;5004897;28;20424;-80
2022/12/14 03:51:28;;;;;;;21.23;16.88;;;;;;;;;;4977261;28;20532;-80
2022/12/14 03:54:16;;;;;;;21.02;16.77;;;;;;;;;;5010919;28;20429;-79
2022/12/14 03:56:42;;;;;;;20.88;17.02;;;;;;;;;;5010698;28;20427;-79
2022/12/14 03:59:11;;;;;;;20.75;16.55;;;;;;;;;;5002254;28;20491;-79
2022/12/14 04:01:37;;;;;;;21.58;16.58;;;;;;;;;;5004733;28;20459;-79
2022/12/14 04:04:06;;;;;;;19.13;14.33;;;;;;;;;;5000171;28;20214;-79
2022/12/14 04:06:38;;;;;;;20.73;16.23;;;;;;;;;;5009621;28;20485;-80
2022/12/14 04:09:15;;;;;;;20.67;16.33;;;;;;;;;;4997250;28;20432;-79
2022/12/14 04:20:08;;;;;;;16.77;12.80;;;;;;;;;;4995743;28;20192;-80
2022/12/14 04:22:38;;;;;;;19.17;14.82;;;;;;;;;;5007497;28;20436;-81
2022/12/14 04:28:03;;;;;;;18.47;15.13;;;;;;;;;;5013901;28;20451;-86
2022/12/14 04:30:31;;;;;;;18.80;15.60;;;;;;;;;;5012126;28;20434;-86
2022/12/14 04:36:01;;;;;;;18.63;15.15;;;;;;;;;;5013135;28;20442;-86
2022/12/14 04:38:34;;;;;;;18.08;15.13;;;;;;;;;;5012137;28;20458;-86
2022/12/14 04:41:02;;;;;;;18.63;12.73;;;;;;;;;;4999231;28;20200;-86
2022/12/14 04:43:30;;;;;;;16.77;12.10;;;;;;;;;;5013044;28;20247;-79
2022/12/14 04:46:17;;;;;;;19.08;14.25;;;;;;;;;;5012223;28;20464;-79
2022/12/14 04:48:48;;;;;;;15.90;12.03;;;;;;;;;;4994916;28;20185;-80
2022/12/14 04:51:21;;;;;;;17.73;13.43;;;;;;;;;;4996575;28;20436;-80
2022/12/14 04:53:49;;;;;;;16.87;12.27;;;;;;;;;;5008348;28;20219;-80
2022/12/14 04:56:22;;;;;;;18.53;11.57;;;;;;;;;;5013429;28;20184;-80
2022/12/14 04:58:49;;;;;;;14.73;10.60;;;;;;;;;;5012748;28;20181;-79
2022/12/14 05:01:23;;;;;;;15.03;11.47;;;;;;;;;;4994948;28;20196;-80
2022/12/14 05:03:56;;;;;;;15.13;10.90;;;;;;;;;;4993332;28;20239;-80
2022/12/14 05:06:22;;;;;;;16.80;11.30;;;;;;;;;;5011519;28;20243;-80
2022/12/14 05:08:55;;;;;;;19.08;14.38;;;;;;;;;;4994313;28;20497;-80
2022/12/14 05:11:24;;;;;;;15.67;11.17;;;;;;;;;;4995984;28;20262;-80
2022/12/14 05:13:50;;;;;;;16.07;10.77;;;;;;;;;;5013276;28;20184;-80
2022/12/14 05:16:18;;;;;;;17.03;11.13;;;;;;;;;;5011865;28;20192;-80
2022/12/14 05:18:44;;;;;;;17.17;10.97;;;;;;;;;;4995351;28;20196;-86
2022/12/14 05:21:45;;;;;;;17.87;11.50;;;;;;;;;;4996522;28;20200;-87
2022/12/14 05:23:58;;;;;;;16.67;10.97;;;;;;;;;;4998639;28;20333;-88
2022/12/14 05:26:24;;;;;;;16.33;11.53;;;;;;;;;;5006218;28;20189;-87
2022/12/14 05:28:50;;;;;;;15.87;10.37;;;;;;;;;;4994848;28;20197;-87
2022/12/14 05:31:16;;;;;;;15.33;11.00;;;;;;;;;;5004610;28;20221;-86
2022/12/14 05:33:42;;;;;;;14.70;11.10;;;;;;;;;;5013202;28;20231;-78
2022/12/14 05:36:08;;;;;;;17.70;11.37;;;;;;;;;;4993482;28;20196;-77
2022/12/14 05:38:34;;;;;;;16.17;10.87;;;;;;;;;;4993429;28;20378;-78
2022/12/14 05:41:00;;;;;;;15.47;10.87;;;;;;;;;;4998381;28;20189;-78
2022/12/14 05:43:27;;;;;;;17.73;11.27;;;;;;;;;;4996811;28;20277;-78
2022/12/14 05:45:59;;;;;;;15.98;12.68;;;;;;;;;;4995993;28;20438;-77
2022/12/14 05:48:25;;;;;;;15.43;10.87;;;;;;;;;;4980657;28;20190;-77
2022/12/14 05:50:51;;;;;;;17.33;13.27;;;;;;;;;;4995685;28;20452;-79
2022/12/14 05:53:17;;;;;;;17.70;11.73;;;;;;;;;;4996542;28;20421;-79
2022/12/14 05:55:50;;;;;;;16.10;11.03;;;;;;;;;;4996589;28;20192;-79
2022/12/14 05:58:17;;;;;;;16.00;10.53;;;;;;;;;;4996851;28;20181;-79
2022/12/14 06:00:43;;;;;;;14.10;10.23;;;;;;;;;;4996562;28;20204;-82
2022/12/14 06:03:09;;;;;;;14.77;10.30;;;;;;;;;;4980364;28;20190;-80
2022/12/14 06:05:35;;;;;;;13.83;10.13;;;;;;;;;;4980456;28;20199;-79
2022/12/14 06:08:01;;;;;;;16.67;10.23;;;;;;;;;;5012182;28;20190;-81
2022/12/14 06:10:27;;;;;;;15.83;10.33;;;;;;;;;;5007583;28;20218;-82
2022/12/14 06:12:53;;;;;;;15.17;10.37;;;;;;;;;;4992917;28;20209;-81
2022/12/14 06:15:19;;;;;;;14.73;9.90;;;;;;;;;;5011508;28;20194;-81
2022/12/14 06:17:46;;;;;;;16.13;10.67;;;;;;;;;;4975613;28;20193;-81
2022/12/14 06:20:13;;;;;;;16.90;10.27;;;;;;;;;;5016515;28;20189;-81
2022/12/14 06:22:39;;;;;;;15.70;10.17;;;;;;;;;;4999911;28;20220;-81
2022/12/14 06:25:05;;;;;;;16.57;10.20;;;;;;;;;;5016277;28;20266;-84
2022/12/14 06:27:32;;;;;;;17.77;10.50;;;;;;;;;;5008425;28;20193;-84
2022/12/14 06:29:58;;;;;;;14.57;10.10;;;;;;;;;;4998622;28;20185;-83
2022/12/14 06:32:25;;;;;;;16.07;10.47;;;;;;;;;;5017561;28;20177;-84
2022/12/14 06:34:51;;;;;;;16.20;10.40;;;;;;;;;;4999597;28;20264;-84
2022/12/14 06:37:17;;;;;;;14.93;10.33;;;;;;;;;;4999731;28;20182;-84
2022/12/14 06:39:43;;;;;;;16.57;10.37;;;;;;;;;;5016566;28;20182;-83
2022/12/14 06:42:09;;;;;;;13.50;9.67;;;;;;;;;;4983489;28;20177;-80
2022/12/14 06:44:36;;;;;;;16.13;10.10;;;;;;;;;;4999850;28;20243;-80
2022/12/14 06:47:02;;;;;;;16.17;9.93;;;;;;;;;;5015524;28;20340;-79
2022/12/14 06:49:28;;;;;;;15.60;11.70;;;;;;;;;;4998799;28;20419;-79
2022/12/14 06:51:54;;;;;;;15.52;12.32;;;;;;;;;;4998455;28;20434;-80
2022/12/14 06:54:20;;;;;;;16.08;11.85;;;;;;;;;;4999144;28;20441;-80
2022/12/14 06:56:47;;;;;;;14.80;10.37;;;;;;;;;;4999475;28;20181;-80
2022/12/14 06:59:13;;;;;;;14.73;10.20;;;;;;;;;;5005051;28;20181;-79
2022/12/14 07:01:39;;;;;;;16.95;11.32;;;;;;;;;;5021065;28;20477;-80
2022/12/14 07:04:05;;;;;;;17.42;12.82;;;;;;;;;;5015846;28;20410;-80
2022/12/14 07:06:33;;;;;;;16.52;12.73;;;;;;;;;;5014058;28;20415;-79
2022/12/14 07:09:00;;;;;;;16.20;11.57;;;;;;;;;;5015359;28;20411;-79
2022/12/14 07:11:26;;;;;;;18.13;13.65;;;;;;;;;;5014338;28;20482;-80
2022/12/14 07:13:53;;;;;;;18.43;13.87;;;;;;;;;;4998793;28;20546;-80
2022/12/14 07:16:23;;;;;;;15.80;11.50;;;;;;;;;;5016310;28;20170;-80
2022/12/14 07:18:50;;;;;;;17.70;11.30;;;;;;;;;;5016127;28;20174;-80
2022/12/14 07:21:17;;;;;;;17.02;12.65;;;;;;;;;;5000575;28;20441;-79
2022/12/14 07:23:44;;;;;;;20.98;14.70;;;;;;;;;;5022485;28;20426;-81
2022/12/14 07:26:12;;;;;;;19.50;14.27;;;;;;;;;;5005831;28;20415;-79
2022/12/14 07:28:39;;;;;;;19.92;14.70;;;;;;;;;;5024545;28;20433;-79
2022/12/14 07:31:06;;;;;;;19.38;14.73;;;;;;;;;;5034221;28;20435;-84
2022/12/14 07:33:33;;;;;;;21.23;14.80;;;;;;;;;;5014714;28;20435;-84
2022/12/14 07:36:04;;;;;;;17.80;12.03;;;;;;;;;;5014832;28;20173;-84
2022/12/14 07:38:30;;;;;;;20.30;12.23;;;;;;;;;;5017004;28;20174;-84
2022/12/14 07:41:03;;;;;;;17.73;11.57;;;;;;;;;;4988839;28;20273;-84
2022/12/14 07:43:29;;;;;;;20.20;12.93;;;;;;;;;;4999806;28;20427;-82
2022/12/14 07:46:09;;;;;;;18.13;12.67;;;;;;;;;;4998863;28;20243;-85
2022/12/14 07:48:35;;;;;;;18.83;12.27;;;;;;;;;;5015399;28;20208;-81
2022/12/14 07:51:02;;;;;;;20.67;12.23;;;;;;;;;;4985522;28;20201;-80
2022/12/14 07:53:28;;;;;;;20.53;12.20;;;;;;;;;;4995415;28;20205;-81
2022/12/14 07:55:54;;;;;;;19.00;12.10;;;;;;;;;;5000621;28;20201;-80
2022/12/14 07:58:20;;;;;;;19.60;12.23;;;;;;;;;;4985118;28;20277;-80
2022/12/14 08:00:47;;;;;;;19.47;11.73;;;;;;;;;;5010491;28;20235;-80
2022/12/14 08:03:13;;;;;;;22.20;16.17;;;;;;;;;;5012400;28;20415;-81
2022/12/14 08:05:40;;;;;;;20.03;13.47;;;;;;;;;;4980733;28;20194;-80
2022/12/14 08:08:06;;;;;;;19.77;11.83;;;;;;;;;;5013107;28;20193;-81
2022/12/14 08:10:32;;;;;;;19.37;12.43;;;;;;;;;;5005843;28;20212;-81
2022/12/14 08:12:58;;;;;;;19.23;11.80;;;;;;;;;;4996484;28;20205;-81
2022/12/14 08:15:24;;;;;;;20.70;11.77;;;;;;;;;;4995938;28;20213;-81
2022/12/14 08:17:50;;;;;;;18.17;11.60;;;;;;;;;;5012907;28;20270;-81
2022/12/14 08:20:16;;;;;;;21.37;14.77;;;;;;;;;;5002208;28;20431;-80
2022/12/14 08:22:42;;;;;;;18.93;12.50;;;;;;;;;;4992153;28;20188;-80
2022/12/14 08:25:08;;;;;;;20.17;15.20;;;;;;;;;;4999447;28;20422;-80
2022/12/14 08:27:34;;;;;;;20.92;15.32;;;;;;;;;;5008398;28;20421;-80
2022/12/14 08:30:00;;;;;;;21.85;16.42;;;;;;;;;;5012034;28;20477;-81
2022/12/14 08:32:26;;;;;;;18.57;13.17;;;;;;;;;;5013187;28;20276;-80
2022/12/14 08:34:52;;;;;;;17.20;12.10;;;;;;;;;;4980568;28;20265;-81
2022/12/14 08:37:18;;;;;;;19.02;12.55;;;;;;;;;;4996821;28;20131;-78
2022/12/14 08:39:44;;;;;;;21.75;14.57;;;;;;;;;;4996271;28;20450;-78
2022/12/14 08:42:10;;;;;;;23.50;17.05;;;;;;;;;;4995786;28;20422;-79
2022/12/14 08:44:36;;;;;;;25.15;18.83;;;;;;;;;;4987009;28;20453;-78
2022/12/14 08:50:20;;;;;;;28.52;21.80;;;;;;;;;;5020341;28;20425;-78
2022/12/14 08:55:32;;;;;;;25.38;19.50;;;;;;;;;;4996224;28;20414;-79
2022/12/14 08:57:58;;;;;;;23.90;18.30;;;;;;;;;;4992983;28;20419;-79
2022/12/14 09:00:24;;;;;;;21.63;15.93;;;;;;;;;;5008626;28;20442;-79
2022/12/14 09:02:50;;;;;;;17.58;14.65;;;;;;;;;;4995592;28;20419;-79
2022/12/14 09:05:16;;;;;;;17.80;14.57;;;;;;;;;;4994914;28;20416;-79
2022/12/14 09:07:42;;;;;;;16.17;13.60;;;;;;;;;;5011121;28;20430;-79
2022/12/14 09:10:09;;;;;;;18.23;13.67;;;;;;;;;;5012237;28;20431;-85
2022/12/14 09:12:36;;;;;;;15.77;13.30;;;;;;;;;;5018971;28;20504;-86
2022/12/14 09:15:02;;;;;;;14.38;12.80;;;;;;;;;;5010618;28;20498;-80
2022/12/14 09:17:28;;;;;;;16.33;13.63;;;;;;;;;;4983818;28;20432;-81
2022/12/14 09:19:54;;;;;;;16.83;14.57;;;;;;;;;;5014871;28;20475;-81
2022/12/14 09:22:20;;;;;;;18.00;15.60;;;;;;;;;;5013544;28;20406;-80
2022/12/14 09:24:46;;;;;;;16.00;14.25;;;;;;;;;;5011860;28;20482;-80
2022/12/14 09:27:12;;;;;;;15.70;13.68;;;;;;;;;;4996311;28;20416;-80
2022/12/14 09:29:38;;;;;;;17.38;14.10;;;;;;;;;;4994265;28;20438;-80
2022/12/14 09:32:04;;;;;;;16.13;13.93;;;;;;;;;;4996253;28;20518;-80
2022/12/14 09:34:30;;;;;;;16.45;14.73;;;;;;;;;;4979533;28;20559;-81
2022/12/14 09:36:57;;;;;;;16.00;14.30;;;;;;;;;;4976340;28;20492;-81
2022/12/14 09:39:24;;;;;;;16.35;14.40;;;;;;;;;;4976152;28;20481;-81
2022/12/14 09:42:01;;;;;;;16.98;15.18;;;;;;;;;;4992305;28;20411;-81
2022/12/14 09:44:28;;;;;;;16.08;14.32;;;;;;;;;;4977388;28;20459;-83
2022/12/14 09:46:54;;;;;;;16.65;14.55;;;;;;;;;;5000864;28;20446;-83
2022/12/14 09:49:31;;;;;;;16.10;14.40;;;;;;;;;;4985755;28;20432;-83
2022/12/14 09:51:59;;;;;;;16.65;14.45;;;;;;;;;;4953687;29;20481;-83
2022/12/14 09:54:26;;;;;;;16.35;14.40;;;;;;;;;;4956474;28;20407;-82
2022/12/14 09:56:54;;;;;;;16.23;14.25;;;;;;;;;;4970278;28;20430;-81
2022/12/14 09:59:20;;;;;;;16.87;14.13;;;;;;;;;;4977549;28;20434;-81
2022/12/14 10:02:15;;;;;;;16.17;14.20;;;;;;;;;;4977774;28;20414;-86
2022/12/14 10:04:46;;;;;;;17.30;14.23;;;;;;;;;;4971255;28;20414;-87
2022/12/14 10:07:38;;;;;;;15.63;13.95;;;;;;;;;;4976499;28;20429;-87
2022/12/14 10:10:10;;;;;;;16.10;14.30;;;;;;;;;;4971583;28;20416;-86
2022/12/14 10:12:52;;;;;;;16.40;13.55;;;;;;;;;;4957819;29;20455;-86
2022/12/14 10:15:27;;;;;;;14.82;13.15;;;;;;;;;;4968621;28;20414;-88
2022/12/14 10:18:00;;;;;;;16.00;14.15;;;;;;;;;;4976077;28;20410;-81
2022/12/14 10:20:55;;;;;;;15.52;13.77;;;;;;;;;;4988550;28;20438;-81
2022/12/14 10:23:23;;;;;;;16.80;13.10;;;;;;;;;;4973062;28;20183;-81
2022/12/14 10:25:51;;;;;;;16.38;13.65;;;;;;;;;;4989395;28;20515;-81
2022/12/14 10:28:19;;;;;;;14.85;13.32;;;;;;;;;;4957789;28;20432;-81
2022/12/14 10:30:46;;;;;;;16.60;13.03;;;;;;;;;;4959000;28;20227;-81
2022/12/14 10:33:31;;;;;;;16.80;14.03;;;;;;;;;;4958990;29;20242;-81
2022/12/14 10:36:08;;;;;;;18.35;14.23;;;;;;;;;;4941925;29;20411;-81
2022/12/14 10:38:47;;;;;;;16.77;14.98;;;;;;;;;;4956848;29;20420;-80
2022/12/14 10:41:23;;;;;;;15.87;14.07;;;;;;;;;;4974010;28;20171;-81
2022/12/14 10:43:55;;;;;;;15.98;14.15;;;;;;;;;;4967550;28;20419;-81
2022/12/14 10:46:27;;;;;;;14.97;13.37;;;;;;;;;;4984095;28;20182;-81
2022/12/14 10:48:59;;;;;;;14.80;13.30;;;;;;;;;;5009098;28;20460;-82
2022/12/14 10:51:36;;;;;;;15.20;13.60;;;;;;;;;;5008413;28;20450;-82
2022/12/14 10:54:02;;;;;;;14.00;12.57;;;;;;;;;;5014694;28;20486;-83
2022/12/14 10:56:30;;;;;;;15.50;13.50;;;;;;;;;;5000046;28;20494;-83
2022/12/14 10:59:15;;;;;;;12.97;11.07;;;;;;;;;;5016620;28;20184;-83
2022/12/14 11:01:41;;;;;;;13.33;11.37;;;;;;;;;;5015221;28;20188;-84
2022/12/14 11:04:31;;;;;;;12.67;10.73;;;;;;;;;;5015525;28;20186;-83
2022/12/14 11:06:58;;;;;;;13.17;11.63;;;;;;;;;;4979556;28;20201;-83
2022/12/14 11:09:24;;;;;;;13.20;11.80;;;;;;;;;;5002500;28;20189;-83
2022/12/14 11:12:17;;;;;;;15.27;11.93;;;;;;;;;;5015298;28;20217;-83
2022/12/14 11:14:52;;;;;;;13.60;11.67;;;;;;;;;;4995266;28;20189;-83
2022/12/14 11:17:38;;;;;;;13.33;11.90;;;;;;;;;;4997460;28;20180;-82
2022/12/14 11:20:04;;;;;;;15.10;12.73;;;;;;;;;;5001151;28;20217;-83
2022/12/14 11:22:42;;;;;;;17.43;12.00;;;;;;;;;;5005829;28;20181;-83
2022/12/14 11:25:25;;;;;;;16.93;13.07;;;;;;;;;;5015275;28;20227;-88
2022/12/14 11:27:51;;;;;;;16.50;12.33;;;;;;;;;;5011761;28;20190;-88
2022/12/14 11:30:18;;;;;;;16.60;13.03;;;;;;;;;;5015068;28;20186;-87
2022/12/14 11:32:46;;;;;;;17.00;13.00;;;;;;;;;;4982630;28;20178;-88
2022/12/14 11:35:17;;;;;;;18.50;13.87;;;;;;;;;;5015102;28;20213;-87
2022/12/14 11:37:43;;;;;;;16.63;12.60;;;;;;;;;;5015207;28;20204;-87
2022/12/14 11:40:25;;;;;;;16.27;12.87;;;;;;;;;;5015587;28;20177;-86
2022/12/14 11:42:54;;;;;;;17.77;14.30;;;;;;;;;;5013604;28;20438;-85
2022/12/14 11:45:28;;;;;;;17.57;13.27;;;;;;;;;;4998010;28;20181;-85
2022/12/14 11:48:13;;;;;;;15.00;12.00;;;;;;;;;;5005422;28;20229;-85
2022/12/14 11:50:39;;;;;;;17.00;13.13;;;;;;;;;;5006014;28;20208;-84
2022/12/14 11:53:06;;;;;;;20.03;14.10;;;;;;;;;;5014855;28;20173;-84
2022/12/14 11:55:35;;;;;;;17.60;13.93;;;;;;;;;;5014478;28;20228;-85
2022/12/14 11:58:02;;;;;;;20.43;14.63;;;;;;;;;;4996963;28;20201;-82
2022/12/14 12:00:41;;;;;;;22.20;15.23;;;;;;;;;;5009770;28;20189;-82
2022/12/14 12:03:13;;;;;;;17.00;13.10;;;;;;;;;;5014606;28;20230;-82
2022/12/14 12:05:40;;;;;;;18.63;13.13;;;;;;;;;;5014414;28;20181;-82
2022/12/14 12:08:17;;;;;;;17.33;13.07;;;;;;;;;;5015596;28;20189;-82
2022/12/14 12:10:44;;;;;;;19.58;15.65;;;;;;;;;;5014925;28;20488;-82
2022/12/14 12:13:28;;;;;;;20.52;16.95;;;;;;;;;;5004778;28;20424;-82
2022/12/14 12:15:56;;;;;;;21.88;17.40;;;;;;;;;;4978046;28;20400;-81
2022/12/14 12:18:25;;;;;;;21.65;16.83;;;;;;;;;;4977602;28;20404;-82
2022/12/14 12:20:57;;;;;;;20.97;17.00;;;;;;;;;;4994848;28;20483;-81
2022/12/14 12:23:32;;;;;;;22.35;17.15;;;;;;;;;;4977344;28;20417;-82
2022/12/14 12:25:59;;;;;;;20.58;17.33;;;;;;;;;;4984283;28;20407;-81
2022/12/14 12:28:30;;;;;;;23.65;18.13;;;;;;;;;;4995141;28;20424;-82
2022/12/14 12:31:00;;;;;;;21.10;16.90;;;;;;;;;;4993422;28;20559;-85
2022/12/14 12:33:26;;;;;;;21.10;16.85;;;;;;;;;;4994292;28;20456;-86
2022/12/14 12:35:54;;;;;;;22.17;17.27;;;;;;;;;;4997536;28;20415;-84
2022/12/14 12:38:39;;;;;;;22.02;17.45;;;;;;;;;;4985576;28;20504;-86
2022/12/14 12:41:05;;;;;;;20.10;16.83;;;;;;;;;;5006773;28;20423;-86
2022/12/14 12:43:36;;;;;;;19.40;16.85;;;;;;;;;;5011977;28;20450;-86
2022/12/14 12:46:05;;;;;;;22.48;17.90;;;;;;;;;;5012205;28;20459;-83
2022/12/14 12:48:35;;;;;;;22.40;17.60;;;;;;;;;;5012223;28;20492;-85
2022/12/14 12:51:02;;;;;;;21.73;17.08;;;;;;;;;;4997000;28;20548;-85
2022/12/14 12:53:29;;;;;;;21.63;17.00;;;;;;;;;;4996829;28;20494;-86
2022/12/14 12:55:58;;;;;;;23.45;18.33;;;;;;;;;;5005752;28;20490;-85
2022/12/14 12:58:29;;;;;;;21.40;17.60;;;;;;;;;;5005056;28;20478;-85
2022/12/14 13:00:56;;;;;;;21.42;17.58;;;;;;;;;;5012859;28;20415;-86
2022/12/14 13:03:50;;;;;;;21.97;17.13;;;;;;;;;;5020258;28;20425;-86
2022/12/14 13:06:20;;;;;;;22.38;17.73;;;;;;;;;;4990056;28;20413;-81
2022/12/14 13:08:48;;;;;;;22.17;17.70;;;;;;;;;;5005500;28;20510;-81
2022/12/14 13:11:18;;;;;;;24.38;17.98;;;;;;;;;;5013700;28;20422;-81
2022/12/14 13:13:46;;;;;;;23.20;17.43;;;;;;;;;;4996236;28;20404;-81
2022/12/14 13:16:14;;;;;;;23.48;17.60;;;;;;;;;;4995682;28;20411;-80
2022/12/14 13:18:43;;;;;;;22.30;17.90;;;;;;;;;;4995824;28;20423;-80
2022/12/14 13:21:18;;;;;;;22.43;17.90;;;;;;;;;;4996496;28;20411;-85
2022/12/14 13:23:44;;;;;;;21.87;17.20;;;;;;;;;;4996593;28;20411;-85
2022/12/14 13:26:17;;;;;;;21.88;16.90;;;;;;;;;;4996545;28;20457;-85
2022/12/14 13:28:42;;;;;;;23.17;17.90;;;;;;;;;;4993505;28;20423;-85
2022/12/14 13:31:21;;;;;;;21.17;17.50;;;;;;;;;;5012312;28;20435;-85
2022/12/14 13:33:56;;;;;;;22.40;17.67;;;;;;;;;;4996593;28;20422;-85
2022/12/14 13:36:22;;;;;;;23.67;15.77;;;;;;;;;;5028301;28;20259;-85
2022/12/14 13:39:06;;;;;;;23.77;17.98;;;;;;;;;;5003843;28;20506;-83
2022/12/14 13:41:32;;;;;;;23.40;18.23;;;;;;;;;;5008017;28;20510;-83
2022/12/14 13:44:08;;;;;;;23.63;18.63;;;;;;;;;;5012838;28;20443;-85
2022/12/14 13:46:34;;;;;;;22.13;17.77;;;;;;;;;;5012249;28;20427;-83
2022/12/14 13:49:03;;;;;;;21.63;16.63;;;;;;;;;;4996499;28;20427;-84
2022/12/14 13:51:30;;;;;;;24.63;16.33;;;;;;;;;;5007299;28;20209;-85
2022/12/14 13:53:58;;;;;;;23.48;16.65;;;;;;;;;;5009449;28;20427;-80
2022/12/14 13:56:44;;;;;;;24.67;16.77;;;;;;;;;;4995760;28;20181;-80
2022/12/14 13:59:22;;;;;;;23.97;16.37;;;;;;;;;;5023449;28;20185;-80
2022/12/14 14:01:52;;;;;;;26.57;16.60;;;;;;;;;;5021539;23;20265;-88
2022/12/14 14:04:19;;;;;;;22.93;16.90;;;;;;;;;;4989231;28;20190;-88
2022/12/14 14:06:49;;;;;;;24.50;16.30;;;;;;;;;;4970224;28;20237;-88
2022/12/14 14:09:31;;;;;;;25.35;19.85;;;;;;;;;;4985853;28;20451;-87
2022/12/14 14:12:15;;;;;;;24.83;17.20;;;;;;;;;;4957565;28;20207;-91
2022/12/14 14:14:44;;;;;;;24.63;17.80;;;;;;;;;;4974319;28;20462;-88
2022/12/14 14:17:23;;;;;;;29.57;18.17;;;;;;;;;;4982854;28;20202;-88
2022/12/14 14:19:51;;;;;;;26.60;17.10;;;;;;;;;;4973635;28;20189;-88
2022/12/14 14:22:18;;;;;;;24.00;17.00;;;;;;;;;;4973355;28;20179;-88
2022/12/14 14:25:01;;;;;;;24.87;17.73;;;;;;;;;;4987714;28;20222;-88
2022/12/14 14:27:46;;;;;;;25.57;17.17;;;;;;;;;;5003689;28;20202;-88
2022/12/14 14:30:27;;;;;;;24.87;18.10;;;;;;;;;;4989413;28;20182;-88
2022/12/14 14:32:53;;;;;;;23.97;17.87;;;;;;;;;;4996668;28;20189;-88
2022/12/14 14:35:30;;;;;;;26.87;17.20;;;;;;;;;;4973265;28;20183;-88
2022/12/14 14:38:00;;;;;;;22.67;16.07;;;;;;;;;;4971930;28;20186;-88
2022/12/14 14:40:28;;;;;;;24.57;17.13;;;;;;;;;;4973181;28;20222;-88
2022/12/14 14:43:01;;;;;;;23.67;17.07;;;;;;;;;;4993126;28;20190;-88
2022/12/14 14:45:30;;;;;;;27.15;21.55;;;;;;;;;;4989220;28;20477;-88
2022/12/14 14:48:00;;;;;;;26.08;20.23;;;;;;;;;;4985514;28;20422;-90
2022/12/14 14:50:29;;;;;;;25.27;20.65;;;;;;;;;;4966968;28;20426;-90
2022/12/14 14:53:13;;;;;;;25.38;20.13;;;;;;;;;;4977999;28;20509;-90